Comodoro Py, Argentina
Current Conditions -  °F | °C
As of 4:00 PM on Saturday 20 Dec 2014 (Local Time) from SAEZ Reporting Station
Scattered Clouds Scattered Clouds  
Wind Chill: 77°   Ceiling: Unl
Heat Index: 79°   Visibility: 6mi
Dew Point: 64°   Wind: 6mph
Humidity: 65%   Direction: 160°SSE
Pressure: 29.56"   Gusts: NA
Location:  35.32°S, 60.52°W
Report Text: SAEZ 201900Z 16005KT 090V190 9999 SCT033 SCT200 25/18 Q1001
Loading
Personal Weather Stations






























Interactive Weather Map New forecast layout! Learn more

10-Day Weather Forecast

Advertisements
Track Severe Weather on mobile